• Join FlightAware (Why Join?)
  • Login
  • US Flag 
08:08PM EDT


 

Airport Tracker/Info


-or-


 

Live Flight TrackerFlight Track Log ✈ N42HN ✈ 29-Jun-2013 ✈ KEUG - KLZU

Flight Track Log - Related Links

Times and Time Zones

All times are in EDT time to prevent confusion due to time zone crossing. See the N42HN flight status page for this flight to view local times or setup timezone preferences in your user account.

Time Position Orientation Groundspeed Altitude Reporting Facility
EDT Latitude Longitude Course Direction KTS MPH feet Rate Location/Type
05:12PM 44.1967 -123.1822 96° East 232 267 4,200  Level Seattle Center
05:13PM 44.1939 -123.0919 92° East 236 272 7,600 2,940 Climbing Seattle Center
05:14PM 44.1844 -122.9919 97° East 254 292 10,300 2,820 Climbing Seattle Center
05:15PM 44.1711 -122.8514 97° East 303 349 13,500 3,000 Climbing Seattle Center
05:16PM 44.1614 -122.7272 96° East 322 371 16,400 2,340 Climbing Seattle Center
05:17PM 44.0655 -122.3266 95° East  Level Estimated
05:17PM 44.1481 -122.5997 98° East 333 383 18,300  Level Seattle Center
05:18PM 44.0528 -122.1498 96° East  Level Estimated
05:18PM 44.1364 -122.4583 97° East 365 420 20,200  Level Seattle Center
05:19PM 44.1222 -122.3122 98° East 379 436 21,900 1,800 Climbing Seattle Center
05:20PM 44.1083 -122.1603 97° East 394 453 23,900 1,860 Climbing Seattle Center
05:22PM 44.0917 -122.0111 99° East 392 451 25,800 1,560 Climbing Seattle Center
05:23PM 44.0769 -121.8653 98° East 402 463 27,100 1,200 Climbing Seattle Center
05:24PM 44.0633 -121.7033 97° East 418 481 28,300 1,320 Climbing Seattle Center
05:25PM 44.0447 -121.5075 97° East 426 490 29,900 1,500 Climbing Seattle Center
05:26PM 44.0278 -121.3469 98° East 422 486 31,400 1,260 Climbing Seattle Center
05:27PM 44.0103 -121.1842 98° East 427 491 32,500 1,020 Climbing Seattle Center
05:28PM 43.9911 -121.0186 99° East 436 502 33,500 840 Climbing Seattle Center
05:29PM 43.9739 -120.8481 98° East 448 516 34,300 840 Climbing Seattle Center
05:30PM 43.9556 -120.6758 98° East 453 521 35,300 960 Climbing Seattle Center
05:31PM 43.9344 -120.5094 100° East 444 511 36,300 960 Climbing Seattle Center
05:32PM 43.9200 -120.3386 97° East 451 519 37,300 840 Climbing Seattle Center
05:33PM 43.8994 -120.1731 100° East 443 510 38,100 720 Climbing Seattle Center
05:34PM 43.8817 -120.0056 98° East 442 509 38,800 420 Climbing Seattle Center
05:35PM 43.8567 -119.8031 100° East 453 521 39,000 180 Climbing Seattle Center
05:36PM 43.8381 -119.6289 98° East 460 529 39,200 480 Climbing Seattle Center
05:37PM 43.8158 -119.4597 100° East 453 521 40,000 780 Climbing Seattle Center
05:38PM 43.7978 -119.2911 98° East 446 513 40,900 480 Climbing Seattle Center
05:39PM 43.7756 -119.1275 101° East 438 504 41,000  Climbing Seattle Center
05:40PM 43.7556 -118.9589 99° East 443 510 41,000  Level Seattle Center
05:41PM 43.7325 -118.7925 101° East 447 514 41,000  Level Seattle Center
05:42PM 43.7078 -118.5997 100° East 456 525 41,000  Level Seattle Center
05:43PM 43.6864 -118.4361 100° East 456 525 41,000  Level Seattle Center
05:44PM 43.6611 -118.2464 100° East 451 519 41,000  Level Seattle Center
05:45PM 43.6400 -118.0847 100° East 448 516 41,000  Level Seattle Center
05:46PM 43.6192 -117.9244 100° East 446 513 41,000  Level Seattle Center
05:47PM 43.5872 -117.7056 101° East 449 517 41,000  Level Salt Lake Center
05:48PM 43.5664 -117.5464 100° East 443 510 41,000  Level Salt Lake Center
05:49PM 43.5417 -117.3600 100° East 443 510 41,000  Level Salt Lake Center
05:50PM 43.5178 -117.2022 102° East 441 507 41,000  Level Salt Lake Center
05:51PM 43.4919 -117.0153 101° East 448 516 41,000  Level Salt Lake Center
05:52PM 43.4692 -116.8567 101° East 444 511 41,000  Level Salt Lake Center
05:53PM 43.4458 -116.6961 101° East 449 517 41,000  Level Salt Lake Center
05:54PM 43.4178 -116.5106 102° East 446 513 41,000  Level Salt Lake Center
05:55PM 43.3942 -116.3506 101° East 448 516 41,000  Level Salt Lake Center
05:56PM 43.3661 -116.1650 102° East 447 514 41,000  Level Salt Lake Center
05:57PM 43.3433 -116.0056 101° East 446 513 41,000  Level Salt Lake Center
05:58PM 43.3144 -115.8194 102° East 448 516 41,000  Level Salt Lake Center
05:59PM 43.2919 -115.6578 101° East 451 519 41,000  Level Salt Lake Center
06:00PM 43.2608 -115.4717 103° East 450 518 41,000  Level Salt Lake Center
06:02PM 43.2364 -115.3131 102° East 447 514 41,000  Level Salt Lake Center
06:03PM 43.2053 -115.1289 103° East 445 512 41,000  Level Salt Lake Center
06:04PM 43.1817 -114.9703 101° East 445 512 41,000  Level Salt Lake Center
06:05PM 43.1550 -114.8133 103° East 443 510 41,000  Level Salt Lake Center
06:06PM 43.1261 -114.6297 102° East 444 511 41,000  Level Salt Lake Center
06:07PM 43.1000 -114.4764 103° East 436 502 41,000  Level Salt Lake Center
06:08PM 43.0697 -114.2947 103° East 439 505 41,000  Level Salt Lake Center
06:09PM 43.0444 -114.1517 104° East 435 501 41,000  Level Salt Lake Center
06:10PM 43.0094 -113.9597 104° East 434 499 41,000  Level Salt Lake Center
06:11PM 42.9867 -113.8144 102° East 435 501 41,000  Level Salt Lake Center
06:12PM 42.9547 -113.6372 104° East 434 499 41,000  Level Salt Lake Center
06:13PM 42.9289 -113.4861 103° East 430 495 41,000  Level Salt Lake Center
06:14PM 42.8972 -113.3081 104° East 431 496 41,000  Level Salt Lake Center
06:15PM 42.8689 -113.1553 104° East 433 498 41,000  Level Salt Lake Center
06:16PM 42.8417 -113.0031 104° East 433 498 41,000  Level Salt Lake Center
06:17PM 42.8092 -112.8256 104° East 432 497 41,000  Level Salt Lake Center
06:18PM 42.7819 -112.6722 104° East 435 501 41,000  Level Salt Lake Center
06:19PM 42.7475 -112.4936 105° East 437 503 41,000  Level Salt Lake Center
06:20PM 42.7203 -112.3389 103° East 440 506 41,000  Level Salt Lake Center
06:21PM 42.6853 -112.1697 106° East 439 505 41,000  Level Salt Lake Center
06:22PM 42.6547 -112.0078 104° East 441 507 41,000  Level Salt Lake Center
06:23PM 42.6239 -111.8458 104° East 442 509 41,000  Level Salt Lake Center
06:24PM 42.5928 -111.6839 105° East 444 511 41,000  Level Salt Lake Center
06:25PM 42.5608 -111.5242 105° East 441 507 41,000  Level Salt Lake Center
06:26PM 42.5228 -111.3322 105° East 440 506 41,000  Level Salt Lake Center
06:27PM 42.4908 -111.1708 105° East 442 509 41,000  Level Salt Lake Center
06:28PM 42.4575 -111.0128 106° East 438 504 41,000  Level Salt Lake Center
06:29PM 42.4264 -110.8469 104° East 439 505 41,000  Level Salt Lake Center
06:30PM 42.3950 -110.6956 106° East 437 503 41,000  Level Salt Lake Center
06:31PM 42.3594 -110.5189 105° East 437 503 41,000  Level Salt Lake Center
06:32PM 42.3278 -110.3672 106° East 438 504 41,000  Level Salt Lake Center
06:33PM 42.2958 -110.2175 106° East 434 499 41,000  Level Salt Lake Center
06:34PM 42.2569 -110.0425 107° East 435 501 41,000  Level Salt Lake Center
06:35PM 42.2269 -109.8917 105° East 434 499 41,000  Level Salt Lake Center
06:36PM 42.1894 -109.7186 106° East 431 496 41,000  Level Salt Lake Center
06:37PM 42.1583 -109.5683 106° East 433 498 41,000  Level Salt Lake Center
06:39PM 42.1192 -109.3928 107° East 436 502 41,000  Level Salt Lake Center
06:40PM 42.0881 -109.2428 106° East 436 502 41,000  Level Salt Lake Center
06:41PM 42.0539 -109.0914 107° East 438 504 41,000  Level Salt Lake Center
06:42PM 42.0144 -108.9128 106° East 443 510 41,000  Level Salt Lake Center
06:43PM 41.9817 -108.7622 106° East 439 505 41,000  Level Salt Lake Center
06:44PM 41.9417 -108.5853 107° East 440 506 41,000  Level Salt Lake Center
06:45PM 41.9075 -108.4328 107° East 443 510 41,000  Level Salt Lake Center
06:46PM 41.8728 -108.2800 107° East 446 513 41,000  Level Salt Lake Center
06:46PM 41.8428 -108.1508 107° East 442 509 41,000  Level Denver Center
06:48PM 41.7994 -107.9761 108° East 441 507 41,000  Level Denver Center
06:49PM 41.7664 -107.8225 106° East 445 512 41,000  Level Denver Center
06:50PM 41.7303 -107.6711 108° East 445 512 41,000  Level Denver Center
06:51PM 41.6894 -107.4939 107° East 445 512 41,000  Level Denver Center
06:52PM 41.6519 -107.3428 108° East 447 514 41,000  Level Denver Center
06:54PM 41.5608 -106.9628 108° East 452 520 41,000  Level Salt Lake Center
06:55PM 41.5308 -106.8364 108° East 449 517 41,000  Level Denver Center
06:56PM 41.4922 -106.6825 108° East 457 526 41,000  Level Denver Center
06:57PM 41.4506 -106.5092 108° East 452 520 41,000  Level Denver Center
06:58PM 41.4125 -106.3589 109° East 449 517 41,000  Level Denver Center
06:59PM 41.3686 -106.1831 108° East 450 518 41,000  Level Denver Center
07:00PM 41.3300 -106.0308 109° East 453 521 41,000 240 Level Denver Center
07:01PM 41.2928 -105.8808 108° East 450 518 41,500 780 Climbing Denver Center
07:02PM 41.2500 -105.7089 108° East 442 509 42,600 720 Climbing Denver Center
07:03PM 41.2117 -105.5664 110° East 433 498 43,000 180 Climbing Denver Center
07:04PM 41.1692 -105.3961 108° East 434 499 43,000  Level Denver Center
07:05PM 41.1294 -105.2464 109° East 444 511 43,000  Level Denver Center
07:06PM 41.0847 -105.0786 109° East 437 503 43,000  Level Denver Center
07:07PM 41.0469 -104.9292 108° East 442 509 43,000  Level Denver Center
07:08PM 41.0033 -104.7669 110° East 446 513 43,000  Level Denver Center
07:09PM 40.9614 -104.6114 110° East 448 516 43,000  Level Denver Center
07:10PM 40.9194 -104.4542 109° East 450 518 43,000  Level Denver Center
07:11PM 40.8769 -104.2964 110° East 455 524 43,000  Level Denver Center
07:12PM 40.8344 -104.1417 110° East 450 518 43,000  Level Denver Center
07:13PM 40.7822 -103.9531 110° East 455 524 43,000  Level Denver Center
07:14PM 40.7403 -103.7989 110° East 448 516 43,000  Level Denver Center
07:15PM 40.6981 -103.6467 110° East 442 509 43,000  Level Denver Center
07:16PM 40.6567 -103.4964 110° East 438 504 43,000  Level Denver Center
07:17PM 40.6142 -103.3467 110° East 435 501 43,000  Level Denver Center
07:18PM 40.5722 -103.1972 110° East 437 503 43,000  Level Denver Center
07:19PM 40.5281 -103.0483 111° Southeast 438 504 43,000  Level Denver Center
07:20PM 40.4786 -102.8664 110° East 441 507 43,000  Level Denver Center
07:21PM 40.4344 -102.7142 111° Southeast 446 513 43,000  Level Denver Center
07:23PM 40.3914 -102.5650 111° Southeast 446 513 43,000  Level Denver Center
07:24PM 40.3486 -102.4186 111° Southeast 449 517 43,000  Level Denver Center
07:25PM 40.2994 -102.2500 111° Southeast 447 514 43,000  Level Denver Center
07:26PM 40.2558 -102.1039 111° Southeast 449 517 43,000  Level Denver Center
07:27PM 40.2042 -101.9322 111° Southeast 455 524 43,000  Level Denver Center
07:28PM 40.1614 -101.7867 111° Southeast 453 521 43,000  Level Denver Center
07:29PM 40.1089 -101.6131 112° Southeast 462 532 43,000  Level Denver Center
07:30PM 40.0675 -101.4672 110° East 455 524 43,000  Level Denver Center
07:31PM 40.0128 -101.2953 113° Southeast 459 528 43,000  Level Denver Center
07:32PM 39.9675 -101.1431 111° Southeast 468 539 43,000  Level Denver Center
07:33PM 39.9133 -100.9694 112° Southeast 467 537 43,000  Level Denver Center
07:34PM 39.8675 -100.8203 112° Southeast 465 535 43,000  Level Denver Center
07:35PM 39.8214 -100.6725 112° Southeast 463 533 43,000  Level Denver Center
07:36PM 39.7683 -100.5000 112° Southeast 461 531 43,000  Level Denver Center
07:37PM 39.7217 -100.3539 113° Southeast 459 528 43,000  Level Denver Center
07:38PM 39.6600 -100.1556 112° Southeast 464 534 43,000  Level Denver Center
07:39PM 39.6047 -99.9842 113° Southeast 463 533 43,000  Level Denver Center
07:40PM 39.5578 -99.8372 112° Southeast 465 535 43,000  Level Denver Center
07:41PM 39.5072 -99.6831 113° Southeast 466 536 43,000  Level Denver Center
07:42PM 39.4542 -99.5147 112° Southeast 466 536 43,000  Level Denver Center
07:43PM 39.4053 -99.3675 113° Southeast 468 539 43,000  Level Denver Center
07:44PM 39.3483 -99.1947 113° Southeast 468 539 43,000  Level Denver Center
07:45PM 39.2992 -99.0467 113° Southeast 469 540 43,000  Level Denver Center
07:46PM 39.2431 -98.8797 113° Southeast 470 541 43,000  Level Denver Center
07:48PM 39.1831 -98.6931 112° Southeast 471 542 43,000  Level Kansas City Center
07:49PM 39.1300 -98.5381 114° Southeast 473 544 43,000  Level Kansas City Center
07:50PM 39.0786 -98.3808 113° Southeast 476 548 43,000  Level Kansas City Center
07:51PM 39.0242 -98.2244 114° Southeast 478 550 43,000  Level Kansas City Center
07:52PM 38.9700 -98.0686 114° Southeast 477 549 43,000  Level Kansas City Center
07:53PM 38.9164 -97.9117 114° Southeast 477 549 43,000  Level Kansas City Center
07:54PM 38.8589 -97.7447 114° Southeast 477 549 43,000  Level Kansas City Center
07:55PM 38.7983 -97.5725 114° Southeast 475 547 43,000  Level Kansas City Center
07:56PM 38.7467 -97.4183 113° Southeast 465 535 43,000  Level Kansas City Center
07:57PM 38.6928 -97.2675 115° Southeast 463 533 43,000  Level Kansas City Center
07:58PM 38.6397 -97.1183 114° Southeast 460 529 43,000  Level Kansas City Center
07:59PM 38.5883 -96.9703 114° Southeast 455 524 43,000  Level Kansas City Center
08:00PM 38.5353 -96.8222 115° Southeast 457 526 43,000  Level Kansas City Center
08:01PM 38.4825 -96.6711 114° Southeast 458 527 43,000  Level Kansas City Center
08:02PM 38.4294 -96.5272 115° Southeast 455 524 43,000  Level Kansas City Center
08:03PM 38.3717 -96.3650 114° Southeast 461 531 43,000  Level Kansas City Center
08:04PM 38.3208 -96.2258 115° Southeast 457 526 43,000  Level Kansas City Center
08:05PM 38.2628 -96.0625 114° Southeast 456 525 43,000  Level Kansas City Center
08:06PM 38.2108 -95.9222 115° Southeast 457 526 43,000  Level Kansas City Center
08:07PM 38.1514 -95.7592 115° Southeast 458 527 43,000  Level Kansas City Center
08:08PM 38.0994 -95.6200 115° Southeast 458 527 43,000  Level Kansas City Center
08:09PM 38.0386 -95.4575 115° Southeast 458 527 43,000  Level Kansas City Center
08:10PM 37.9867 -95.3186 115° Southeast 458 527 43,000  Level Kansas City Center
08:11PM 37.9267 -95.1608 116° Southeast 454 522 43,000  Level Kansas City Center
08:12PM 37.8739 -95.0231 116° Southeast 449 517 43,000  Level Kansas City Center
08:13PM 37.8219 -94.8836 115° Southeast 454 522 43,000  Level Kansas City Center
08:14PM 37.7597 -94.7239 116° Southeast 455 524 43,000  Level Kansas City Center
08:15PM 37.7081 -94.5853 115° Southeast 456 525 43,000  Level Kansas City Center
08:16PM 37.6508 -94.4394 116° Southeast 456 525 43,000  Level Kansas City Center
08:17PM 37.5939 -94.2928 116° Southeast 461 531 43,000  Level Kansas City Center
08:18PM 37.5383 -94.1492 116° Southeast 457 526 43,000  Level Kansas City Center
08:19PM 37.4808 -94.0031 116° Southeast 455 524 43,000  Level Kansas City Center
08:20PM 37.4239 -93.8586 116° Southeast 459 528 43,000  Level Kansas City Center
08:21PM 37.3561 -93.6878 116° Southeast 457 526 43,000  Level Kansas City Center
08:22PM 37.3031 -93.5436 115° Southeast 456 525 43,000  Level Kansas City Center
08:23PM 37.2442 -93.4006 117° Southeast 458 527 43,000  Level Kansas City Center
08:24PM 37.1869 -93.2578 117° Southeast 458 527 43,000  Level Kansas City Center
08:26PM 37.1292 -93.1153 117° Southeast 459 528 43,000  Level Kansas City Center
08:27PM 37.0719 -92.9722 117° Southeast 460 529 43,000  Level Kansas City Center
08:28PM 37.0139 -92.8300 117° Southeast 460 529 43,000  Level Kansas City Center
08:29PM 36.9556 -92.6872 117° Southeast 460 529 43,000  Level Kansas City Center
08:30PM 36.8844 -92.5169 118° Southeast 461 531 43,000  Level Kansas City Center
08:31PM 36.8278 -92.3736 116° Southeast 461 531 43,000  Level Kansas City Center
08:32PM 36.7681 -92.2325 118° Southeast 461 531 43,000  Level Kansas City Center
08:33PM 36.7089 -92.0911 118° Southeast 461 531 43,000  Level Kansas City Center
08:34PM 36.6508 -91.9494 117° Southeast 460 529 43,000  Level Kansas City Center
08:35PM 36.6003 -91.8328 118° Southeast 458 527 43,000  Level Memphis Center
08:36PM 36.5414 -91.6897 117° Southeast 458 527 43,000  Level Memphis Center
08:37PM 36.4781 -91.5492 119° Southeast 458 527 43,000  Level Memphis Center
08:38PM 36.4169 -91.4092 118° Southeast 458 527 43,000  Level Memphis Center
08:39PM 36.3617 -91.2692 116° Southeast 458 527 43,000  Level Memphis Center
08:40PM 36.3000 -91.1294 119° Southeast 458 527 43,000  Level Memphis Center
08:41PM 36.2406 -90.9925 118° Southeast 453 521 43,000  Level Memphis Center
08:42PM 36.1806 -90.8558 119° Southeast 453 521 43,000  Level Memphis Center
08:43PM 36.1206 -90.7142 118° Southeast 453 521 43,000  Level Memphis Center
08:44PM 36.0647 -90.5803 117° Southeast 453 521 43,000  Level Memphis Center
08:45PM 36.0022 -90.4442 120° Southeast 453 521 43,000  Level Memphis Center
08:46PM 35.9439 -90.3058 117° Southeast 453 521 43,000  Level Memphis Center
08:47PM 35.8833 -90.1700 119° Southeast 453 521 43,000  Level Memphis Center
08:48PM 35.8203 -90.0319 119° Southeast 459 528 43,000  Level Memphis Center
08:49PM 35.7617 -89.8939 118° Southeast 459 528 43,000  Level Memphis Center
08:50PM 35.6983 -89.7564 120° Southeast 454 522 43,000  Level Memphis Center
08:51PM 35.6411 -89.5983 114° Southeast 454 522 43,000  Level Memphis Center
08:52PM 35.5756 -89.4636 121° Southeast 459 528 43,000  Level Memphis Center
08:53PM 35.5206 -89.3367 118° Southeast 459 528 43,000  Level Memphis Center
08:54PM 35.4586 -89.1997 119° Southeast 459 528 43,000  Level Memphis Center
08:55PM 35.3906 -89.0608 121° Southeast 464 534 43,000  Level Memphis Center
08:56PM 35.3308 -88.9242 118° Southeast 464 534 43,000  Level Memphis Center
08:57PM 35.2664 -88.7853 120° Southeast 464 534 43,000  Level Memphis Center
08:58PM 35.1956 -88.6369 120° Southeast 464 534 43,000  Level Memphis Center
08:59PM 35.1353 -88.5008 118° Southeast 464 534 43,000  Level Memphis Center
09:00PM 35.0792 -88.3831 120° Southeast 453 521 43,000  Level Memphis Center
09:01PM 35.0167 -88.2525 120° Southeast 448 516 43,000  Level Memphis Center
09:02PM 34.9514 -88.0997 117° Southeast 456 525 43,000 -120 Level Memphis Center
09:03PM 34.8861 -87.9672 121° Southeast 456 525 42,800 -660 Descending Memphis Center
09:04PM 34.8208 -87.8275 120° Southeast 457 526 41,700 -900 Descending Memphis Center
09:05PM 34.7511 -87.6906 122° Southeast 462 532 41,100 -1,140 Descending Memphis Center
09:07PM 34.6069 -87.3700 119° Southeast 478 550 38,000 -1,320 Descending Atlanta Center
09:08PM 34.5375 -87.2311 121° Southeast 478 550 36,900 -1,080 Descending Atlanta Center
09:09PM 34.4722 -87.0950 120° Southeast 478 550 35,900 -1,140 Descending Atlanta Center
09:10PM 34.4044 -86.9642 122° Southeast 473 544 34,700 -1,020 Descending Atlanta Center
09:11PM 34.3547 -86.8569 119° Southeast 467 537 33,900 -2,040 Descending Atlanta Center
09:12PM 34.2828 -86.7136 121° Southeast 455 524 30,700 -3,600 Descending Atlanta Center
09:13PM 34.2169 -86.5733 120° Southeast 467 537 26,700 -3,300 Descending Atlanta Center
09:14PM 34.1528 -86.4436 121° Southeast 467 537 24,200 3,120 Descending Atlanta Center
09:15PM 34.1133 -86.3144 110° East 423 487 33,000 -3,480 Climbing Atlanta Center
09:16PM 34.1161 -86.1664 89° East 416 479 17,300 -9,240 Descending Atlanta Center
09:17PM 34.0425 -86.0694 132° Southeast 393 452 14,600 -2,820 Descending Atlanta Center
09:18PM 33.9983 -85.9706 118° Southeast 364 419 11,700 -1,800 Descending Atlanta Center
09:19PM 34.0019 -85.8631 88° East 325 374 11,000 -360 Descending Atlanta Center
09:20PM 33.9933 -85.7500 95° East 315 362 11,000  Level Atlanta Center
09:21PM 33.9881 -85.6572 94° East 310 357 11,000  Level Atlanta Center
09:22PM 33.9853 -85.5494 92° East 310 357 11,000 -360 Level Atlanta Center
09:23PM 33.9783 -85.4467 95° East 315 362 10,300 -1,080 Descending Atlanta Center
09:24PM 33.9711 -85.3414 95° East 315 362 8,900 -1,200 Descending Atlanta Center
09:25PM 33.9636 -85.2411 95° East 310 357 8,000 -480 Descending Atlanta Center
09:26PM 33.9606 -85.1408 92° East 305 351 8,000 -60 Level Atlanta Center
09:27PM 33.9572 -85.0406 92° East 305 351 7,900 -360 Descending Atlanta Center
09:28PM 33.9622 -84.9356 87° East 292 336 7,300 -720 Descending Atlanta Center
09:29PM 33.9628 -84.8453 90° East 274 315 6,500 -660 Descending Atlanta Center
09:30PM 33.9656 -84.7553 88° East 268 308 6,000 -600 Descending Atlanta Center
09:31PM 33.9658 -84.6675 90° East 268 308 5,400 -540 Descending Atlanta Center
09:32PM 33.9683 -84.5822 88° East 256 295 5,000 -180 Descending Atlanta Center
09:34PM 33.9667 -84.4167 91° East 241 277 5,000  Level Atlanta TRACON
09:35PM 33.9667 -84.3333 90° East 239 275 5,000 -360 Level Atlanta TRACON
09:36PM 33.9667 -84.2500 90° East 234 269 4,300 -600 Descending Atlanta TRACON
09:37PM 33.9500 -84.1833 107° East 219 252 3,800 -540 Descending Atlanta TRACON